Hauptseite
METAR-TAF:

METAR-TAF

Flughäfen :

Fliegerhorst Wunstorf

Wunstorf, Deutschland

Breite: 52-27N, Länge: 009-26E, Höhe: 57 m

Beobachtung

Neuester Wetterbericht von vor 59 Minuten, um 18:20 UTC
Wind 5 kt aus Süd
Temperatur 27°C
Luftfeuchtigkeit 34%
Luftdruck 1016 hPa
Sichtweite 10 km oder mehr
Leicht bewölkt in der Höhe von 32000 ft

METAR: ETNW 051820Z 17005KT 9999 FEW320 27/10 Q1016 BLU+BLU+

Zeit: 21:19 (19:19 UTC)

Prognose

Neuester Wetterbericht von vor 3 Stunden und 19 Minuten, um 16:00 UTC
Gültige Prognose vom 05 um 17 UTC bis 06 um 17 UTC
Wind 3 kt aus unterschiedlichen Richtungen
Sichtweite 10 km oder mehr
Leicht bewölkt in der Höhe von 35000 ft

TAF: ETNW 051600Z 0517/0617 VRB03KT 9999 NSW FEW350 BY ETGL

Wetterbeobachtungen und Prognosen von mehr als 4000 Flughäfen (METAR und TAF Bericht).

Die verfügbaren Stationen werden durch gelbe und rote Markierungen auf der Karte dargestellt.

Führen Sie die Maus auf sie, um den Namen der Station zu sehen.

Darauf klicken, um die Beobachtung von Wetterbeobachtungen und Prognosen zu sehen.

Um die Karte zu ändern : klicken Sie auf den grünen Tasten mit einem schwarzen Kreuz Zum Vergrößern, auf den grünen Button mit einem Gedankenstrich zu verkleinern, oder auf die grünen Pfeile für benachbarte Karten.


METAR-TAF: